createdAt,value
2018-11-06T00:05:00.131Z,62.40
2018-11-06T00:10:29.495Z,62.20
2018-11-06T00:15:58.781Z,62.10
2018-11-06T00:21:28.068Z,62.20
2018-11-06T00:26:57.448Z,62.50
2018-11-06T00:32:26.764Z,63.10
2018-11-06T00:37:56.127Z,63.10
2018-11-06T00:43:26.502Z,63.00
2018-11-06T00:48:55.769Z,63.20
2018-11-06T00:54:25.125Z,64.70
2018-11-06T00:59:54.749Z,65.10
2018-11-06T01:05:24.172Z,65.10
2018-11-06T01:10:53.530Z,65.10
2018-11-06T01:16:23.036Z,65.70
2018-11-06T01:21:52.321Z,65.90
2018-11-06T01:27:21.647Z,66.20
2018-11-06T01:32:50.961Z,66.30
2018-11-06T01:38:21.560Z,66.40
2018-11-06T01:43:50.901Z,66.60
2018-11-06T01:49:20.152Z,66.80
2018-11-06T01:54:49.442Z,67.10
2018-11-06T02:00:19.677Z,67.20
2018-11-06T02:05:49.037Z,67.40
2018-11-06T02:11:18.525Z,67.60
2018-11-06T02:16:47.994Z,67.80
2018-11-06T02:22:17.406Z,67.80
2018-11-06T02:27:46.688Z,68.00
2018-11-06T02:33:16.708Z,68.20
2018-11-06T02:38:46.749Z,68.30
2018-11-06T02:44:16.836Z,68.40
2018-11-06T02:49:46.248Z,68.40
2018-11-06T02:55:15.535Z,68.50
2018-11-06T03:00:44.861Z,68.70
2018-11-06T03:06:16.205Z,68.80
2018-11-06T03:11:45.549Z,68.90
2018-11-06T03:17:14.954Z,69.00
2018-11-06T03:22:44.797Z,69.20
2018-11-06T03:28:14.034Z,69.30
2018-11-06T03:33:43.312Z,69.30
2018-11-06T03:39:12.643Z,69.40
2018-11-06T03:44:41.896Z,69.60
2018-11-06T03:50:12.522Z,69.70
2018-11-06T03:55:42.859Z,69.80
2018-11-06T04:01:12.107Z,70.00
2018-11-06T04:06:42.396Z,70.00
2018-11-06T04:12:12.157Z,70.20
2018-11-06T04:17:42.060Z,70.30
2018-11-06T04:23:11.420Z,70.40
2018-11-06T04:28:40.733Z,70.50
2018-11-06T04:34:10.280Z,70.60
2018-11-06T04:39:39.553Z,70.60
2018-11-06T04:45:09.964Z,70.70
2018-11-06T04:50:39.336Z,70.80
2018-11-06T04:56:09.316Z,70.90
2018-11-06T05:01:39.892Z,71.00
2018-11-06T05:07:09.250Z,71.30
2018-11-06T05:12:38.768Z,71.30
2018-11-06T05:18:08.181Z,71.30
2018-11-06T05:23:37.891Z,71.40
2018-11-06T05:29:07.153Z,71.40
2018-11-06T05:34:36.449Z,71.40
2018-11-06T05:40:24.544Z,71.50
2018-11-06T05:45:54.454Z,71.60
2018-11-06T05:51:23.851Z,71.70
2018-11-06T05:56:53.080Z,71.80
2018-11-06T06:02:22.329Z,71.70
2018-11-06T06:07:51.615Z,71.80
2018-11-06T06:13:20.896Z,71.80
2018-11-06T06:18:50.222Z,71.90
2018-11-06T06:24:19.501Z,72.10
2018-11-06T06:29:48.809Z,71.80
2018-11-06T06:35:18.143Z,71.70
2018-11-06T06:40:47.264Z,71.60
2018-11-06T06:46:16.573Z,71.50
2018-11-06T06:51:45.721Z,71.30
2018-11-06T06:57:14.996Z,71.20
2018-11-06T07:02:44.304Z,71.10
2018-11-06T07:08:13.558Z,71.10
2018-11-06T07:13:42.848Z,70.70
2018-11-06T07:19:12.160Z,70.90
2018-11-06T07:24:41.404Z,70.50
2018-11-06T07:30:14.483Z,70.20
2018-11-06T07:35:43.903Z,68.90
2018-11-06T07:41:13.072Z,68.40
2018-11-06T07:46:42.352Z,68.20
2018-11-06T07:52:11.632Z,68.00
2018-11-06T07:57:40.848Z,67.60
2018-11-06T08:03:10.108Z,67.40
2018-11-06T08:08:39.362Z,67.10
2018-11-06T08:14:08.585Z,67.10
2018-11-06T08:19:37.894Z,66.90
2018-11-06T08:25:08.476Z,66.60
2018-11-06T08:30:37.757Z,66.30
2018-11-06T08:36:07.321Z,65.80
2018-11-06T08:41:36.585Z,65.60
2018-11-06T08:47:06.007Z,65.40
2018-11-06T08:52:35.327Z,65.00
2018-11-06T08:58:04.620Z,64.70
2018-11-06T09:03:33.814Z,64.10
2018-11-06T09:09:03.277Z,63.40
2018-11-06T09:14:32.497Z,63.00
2018-11-06T09:20:02.740Z,62.30
2018-11-06T09:25:31.955Z,62.20
2018-11-06T09:31:01.297Z,61.60
2018-11-06T09:36:30.536Z,61.10
2018-11-06T09:41:59.741Z,61.10
2018-11-06T09:47:28.942Z,60.90
2018-11-06T09:52:58.246Z,60.50
2018-11-06T09:58:27.467Z,59.80
2018-11-06T10:03:56.692Z,59.30
2018-11-06T10:09:25.915Z,61.70
2018-11-06T10:14:55.143Z,59.10
2018-11-06T10:20:24.368Z,58.40
2018-11-06T10:25:53.607Z,57.90
2018-11-06T10:31:22.836Z,57.00
2018-11-06T10:36:52.106Z,56.90
2018-11-06T10:42:21.309Z,56.60
2018-11-06T10:47:50.494Z,56.20
2018-11-06T10:53:19.712Z,55.80
2018-11-06T10:58:48.948Z,57.60
2018-11-06T11:04:20.246Z,55.70
2018-11-06T11:09:49.367Z,55.70
2018-11-06T11:15:18.795Z,55.30
2018-11-06T11:20:48.003Z,55.10
2018-11-06T11:26:17.220Z,55.20
2018-11-06T11:31:46.456Z,55.20
2018-11-06T11:37:15.775Z,55.60
2018-11-06T11:42:45.069Z,55.30
2018-11-06T11:48:14.336Z,55.30
2018-11-06T11:53:43.571Z,55.00
2018-11-06T11:59:13.989Z,57.60
2018-11-06T12:04:43.205Z,55.60
2018-11-06T12:10:13.127Z,55.30
2018-11-06T12:15:42.388Z,54.90
2018-11-06T12:21:11.663Z,54.80
2018-11-06T12:26:41.092Z,54.60
2018-11-06T12:32:10.272Z,54.40
2018-11-06T12:37:39.733Z,54.10
2018-11-06T12:43:09.077Z,53.90
2018-11-06T12:48:38.299Z,53.70
2018-11-06T12:54:07.557Z,53.80
2018-11-06T12:59:36.840Z,53.80
2018-11-06T13:05:06.824Z,52.70
2018-11-06T13:10:36.024Z,51.90
2018-11-06T13:16:05.380Z,51.50
2018-11-06T13:21:34.664Z,50.90
2018-11-06T13:27:04.188Z,49.80
2018-11-06T13:32:33.600Z,49.00
2018-11-06T13:38:02.864Z,47.40
2018-11-06T13:43:32.336Z,46.00
2018-11-06T13:49:01.533Z,45.10
2018-11-06T13:54:30.801Z,43.10
2018-11-06T14:00:00.110Z,41.90
2018-11-06T14:05:29.333Z,41.60
2018-11-06T14:10:58.628Z,39.50
2018-11-06T14:16:28.010Z,39.50
2018-11-06T14:21:57.298Z,41.40
2018-11-06T14:27:26.657Z,41.20
2018-11-06T14:32:55.789Z,40.70
2018-11-06T14:38:25.425Z,40.70
2018-11-06T14:43:54.788Z,42.00
2018-11-06T14:49:24.241Z,43.70
2018-11-06T14:54:53.840Z,45.00
2018-11-06T15:00:23.125Z,46.00
2018-11-06T15:05:52.575Z,46.90
2018-11-06T15:11:22.028Z,47.90
2018-11-06T15:16:51.269Z,48.70
2018-11-06T15:22:20.525Z,49.60
2018-11-06T15:27:49.756Z,50.50
2018-11-06T15:33:19.025Z,51.30
2018-11-06T15:38:48.244Z,52.00
2018-11-06T15:44:17.553Z,52.70
2018-11-06T15:49:46.805Z,53.40
2018-11-06T15:55:16.146Z,54.20
2018-11-06T16:00:45.655Z,54.70
2018-11-06T16:06:14.988Z,55.50
2018-11-06T16:11:44.263Z,57.00
2018-11-06T16:17:13.484Z,57.60
2018-11-06T16:22:42.976Z,58.00
2018-11-06T16:28:12.279Z,58.10
2018-11-06T16:33:41.506Z,58.60
2018-11-06T16:39:12.234Z,59.10
2018-11-06T16:44:41.496Z,59.30
2018-11-06T16:50:12.283Z,59.70
2018-11-06T16:55:41.513Z,60.60
2018-11-06T17:01:11.019Z,60.70
2018-11-06T17:06:44.145Z,61.30
2018-11-06T17:12:13.239Z,61.50
2018-11-06T17:17:43.009Z,62.50
2018-11-06T17:23:12.240Z,62.50
2018-11-06T17:28:41.456Z,62.90
2018-11-06T17:34:10.728Z,63.80
2018-11-06T17:39:40.176Z,63.70
2018-11-06T17:45:12.365Z,63.90
2018-11-06T17:50:41.829Z,64.10
2018-11-06T17:56:11.189Z,64.50
2018-11-06T18:01:40.444Z,64.50
2018-11-06T18:07:09.852Z,64.70
2018-11-06T18:12:39.102Z,64.90
2018-11-06T18:18:08.322Z,65.00
2018-11-06T18:23:37.600Z,65.50
2018-11-06T18:29:06.920Z,65.60
2018-11-06T18:34:36.473Z,65.70
2018-11-06T18:40:08.040Z,65.30
2018-11-06T18:45:37.357Z,65.30
2018-11-06T18:51:06.672Z,65.20
2018-11-06T18:56:35.948Z,65.10
2018-11-06T19:02:05.759Z,65.20
2018-11-06T19:07:35.370Z,64.90
2018-11-06T19:13:04.676Z,64.50
2018-11-06T19:18:33.909Z,64.20
2018-11-06T19:24:03.401Z,64.10
2018-11-06T19:29:32.554Z,63.80
2018-11-06T19:35:02.031Z,63.20
2018-11-06T19:40:31.424Z,62.80
2018-11-06T19:46:00.629Z,62.40
2018-11-06T19:51:29.972Z,62.10
2018-11-06T19:56:59.412Z,62.50
2018-11-06T20:02:28.693Z,61.80
2018-11-06T20:07:58.000Z,62.10
2018-11-06T20:13:27.320Z,61.80
2018-11-06T20:18:58.280Z,61.80
2018-11-06T20:24:29.138Z,62.10
2018-11-06T20:29:58.611Z,61.90
2018-11-06T20:35:28.641Z,61.80
2018-11-06T20:40:58.880Z,61.80
2018-11-06T20:46:28.227Z,61.80
2018-11-06T20:51:57.377Z,61.90
2018-11-06T20:57:26.779Z,62.20
2018-11-06T21:02:57.316Z,62.40
2018-11-06T21:08:26.600Z,62.70
2018-11-06T21:13:55.926Z,62.90
2018-11-06T21:19:25.418Z,63.30
2018-11-06T21:24:54.930Z,63.70
2018-11-06T21:30:24.144Z,64.00
2018-11-06T21:35:53.578Z,64.50
2018-11-06T21:41:22.982Z,64.70
2018-11-06T21:46:52.389Z,65.30
2018-11-06T21:52:21.855Z,65.70
2018-11-06T21:57:51.213Z,66.10
2018-11-06T22:03:20.672Z,66.50
2018-11-06T22:08:50.021Z,66.80
2018-11-06T22:14:19.410Z,67.00
2018-11-06T22:19:48.752Z,67.50
2018-11-06T22:25:18.424Z,68.10
2018-11-06T22:30:48.483Z,68.70
2018-11-06T22:36:19.109Z,68.70
2018-11-06T22:41:48.428Z,69.00
2018-11-06T22:47:17.734Z,69.40
2018-11-06T22:52:47.933Z,69.70
2018-11-06T22:58:17.299Z,70.00
2018-11-06T23:03:46.949Z,70.40
2018-11-06T23:09:16.272Z,71.20
2018-11-06T23:14:45.908Z,70.60
2018-11-06T23:20:15.214Z,70.80
2018-11-06T23:25:45.110Z,70.90
2018-11-06T23:31:14.371Z,71.00
2018-11-06T23:36:43.747Z,71.10
2018-11-06T23:42:13.065Z,71.30
2018-11-06T23:47:42.413Z,71.50
2018-11-06T23:53:11.694Z,71.60
2018-11-06T23:58:41.056Z,71.80
